sensor_id;sensor_type;location;lat;lon;timestamp;pressure;altitude;pressure_sealevel;temperature;humidity
48862;BME280;34681;49.188;-0.374;2023-02-13T00:01:31;103232.88;;;7.84;67.84
48862;BME280;34681;49.188;-0.374;2023-02-13T00:03:56;103231.09;;;7.83;67.78
48862;BME280;34681;49.188;-0.374;2023-02-13T00:06:22;103225.03;;;7.76;67.62
48862;BME280;34681;49.188;-0.374;2023-02-13T00:08:48;103224.06;;;7.77;67.73
48862;BME280;34681;49.188;-0.374;2023-02-13T00:11:14;103218.72;;;7.55;68.69
48862;BME280;34681;49.188;-0.374;2023-02-13T00:13:39;103221.44;;;7.55;68.68
48862;BME280;34681;49.188;-0.374;2023-02-13T00:16:05;103215.50;;;7.66;68.11
48862;BME280;34681;49.188;-0.374;2023-02-13T00:18:34;103207.44;;;7.43;68.80
48862;BME280;34681;49.188;-0.374;2023-02-13T00:21:02;103209.50;;;7.58;68.71
48862;BME280;34681;49.188;-0.374;2023-02-13T00:23:29;103204.94;;;7.38;69.25
48862;BME280;34681;49.188;-0.374;2023-02-13T00:25:56;103206.41;;;7.25;70.31
48862;BME280;34681;49.188;-0.374;2023-02-13T00:28:22;103201.03;;;7.44;69.55
48862;BME280;34681;49.188;-0.374;2023-02-13T00:30:48;103208.53;;;7.59;68.55
48862;BME280;34681;49.188;-0.374;2023-02-13T00:33:13;103207.47;;;7.63;68.20
48862;BME280;34681;49.188;-0.374;2023-02-13T00:35:39;103205.75;;;7.60;68.22
48862;BME280;34681;49.188;-0.374;2023-02-13T00:38:04;103196.84;;;7.57;68.62
48862;BME280;34681;49.188;-0.374;2023-02-13T00:40:29;103203.09;;;7.59;68.51
48862;BME280;34681;49.188;-0.374;2023-02-13T00:42:55;103203.91;;;7.61;68.46
48862;BME280;34681;49.188;-0.374;2023-02-13T00:45:20;103199.41;;;7.60;68.09
48862;BME280;34681;49.188;-0.374;2023-02-13T00:47:45;103197.78;;;7.56;67.85
48862;BME280;34681;49.188;-0.374;2023-02-13T00:50:11;103190.34;;;7.59;67.57
48862;BME280;34681;49.188;-0.374;2023-02-13T00:52:36;103190.50;;;7.56;67.29
48862;BME280;34681;49.188;-0.374;2023-02-13T00:55:01;103187.31;;;7.47;67.64
48862;BME280;34681;49.188;-0.374;2023-02-13T00:57:27;103191.03;;;7.44;67.51
48862;BME280;34681;49.188;-0.374;2023-02-13T00:59:53;103183.00;;;7.41;67.60
48862;BME280;34681;49.188;-0.374;2023-02-13T01:02:18;103182.81;;;7.03;68.25
48862;BME280;34681;49.188;-0.374;2023-02-13T01:04:44;103182.22;;;7.17;68.39
48862;BME280;34681;49.188;-0.374;2023-02-13T01:07:09;103176.31;;;7.28;67.71
48862;BME280;34681;49.188;-0.374;2023-02-13T01:09:34;103178.09;;;7.29;67.78
48862;BME280;34681;49.188;-0.374;2023-02-13T01:12:00;103173.78;;;7.23;68.05
48862;BME280;34681;49.188;-0.374;2023-02-13T01:14:25;103180.13;;;7.24;67.61
48862;BME280;34681;49.188;-0.374;2023-02-13T01:16:51;103173.88;;;7.22;67.47
48862;BME280;34681;49.188;-0.374;2023-02-13T01:19:16;103171.94;;;7.24;67.33
48862;BME280;34681;49.188;-0.374;2023-02-13T01:21:42;103169.81;;;7.10;67.81
48862;BME280;34681;49.188;-0.374;2023-02-13T01:24:08;103170.28;;;7.20;67.55
48862;BME280;34681;49.188;-0.374;2023-02-13T01:26:33;103167.69;;;6.74;68.51
48862;BME280;34681;49.188;-0.374;2023-02-13T01:28:59;103163.13;;;6.97;67.96
48862;BME280;34681;49.188;-0.374;2023-02-13T01:31:25;103175.66;;;7.01;67.53
48862;BME280;34681;49.188;-0.374;2023-02-13T01:33:51;103178.19;;;7.06;67.18
48862;BME280;34681;49.188;-0.374;2023-02-13T01:36:16;103174.19;;;6.92;67.73
48862;BME280;34681;49.188;-0.374;2023-02-13T01:38:42;103177.06;;;6.89;68.43
48862;BME280;34681;49.188;-0.374;2023-02-13T01:41:08;103179.69;;;6.70;69.27
48862;BME280;34681;49.188;-0.374;2023-02-13T01:46:53;103173.47;;;5.98;73.65
48862;BME280;34681;49.188;-0.374;2023-02-13T01:49:22;103167.84;;;6.26;72.70
48862;BME280;34681;49.188;-0.374;2023-02-13T01:51:52;103169.97;;;6.18;72.94
48862;BME280;34681;49.188;-0.374;2023-02-13T01:54:24;103178.06;;;5.96;73.44
48862;BME280;34681;49.188;-0.374;2023-02-13T01:57:00;103177.78;;;5.54;75.09
48862;BME280;34681;49.188;-0.374;2023-02-13T01:59:38;103180.88;;;5.43;75.99
48862;BME280;34681;49.188;-0.374;2023-02-13T02:02:06;103176.78;;;5.31;76.23
48862;BME280;34681;49.188;-0.374;2023-02-13T02:04:33;103168.38;;;5.64;75.65
48862;BME280;34681;49.188;-0.374;2023-02-13T02:07:10;103176.72;;;5.33;76.50
48862;BME280;34681;49.188;-0.374;2023-02-13T02:09:39;103179.59;;;5.28;76.27
48862;BME280;34681;49.188;-0.374;2023-02-13T02:12:13;103165.03;;;5.81;75.07
48862;BME280;34681;49.188;-0.374;2023-02-13T02:14:42;103169.91;;;5.96;73.97
48862;BME280;34681;49.188;-0.374;2023-02-13T02:17:08;103176.19;;;5.48;75.35
48862;BME280;34681;49.188;-0.374;2023-02-13T02:43:30;103157.72;;;5.33;76.23
48862;BME280;34681;49.188;-0.374;2023-02-13T02:48:42;103149.66;;;5.05;76.76
48862;BME280;34681;49.188;-0.374;2023-02-13T02:51:40;103138.72;;;5.33;76.46
48862;BME280;34681;49.188;-0.374;2023-02-13T02:54:50;103134.69;;;5.68;75.08
48862;BME280;34681;49.188;-0.374;2023-02-13T02:57:37;103131.06;;;5.44;74.94
48862;BME280;34681;49.188;-0.374;2023-02-13T03:00:24;103134.91;;;5.62;74.71
48862;BME280;34681;49.188;-0.374;2023-02-13T03:03:17;103144.28;;;5.28;75.87
48862;BME280;34681;49.188;-0.374;2023-02-13T03:06:04;103136.09;;;5.05;76.32
48862;BME280;34681;49.188;-0.374;2023-02-13T03:08:45;103145.22;;;4.76;77.10
48862;BME280;34681;49.188;-0.374;2023-02-13T03:11:34;103146.78;;;5.10;77.01
48862;BME280;34681;49.188;-0.374;2023-02-13T03:14:19;103134.88;;;5.63;74.34
48862;BME280;34681;49.188;-0.374;2023-02-13T03:16:46;103141.31;;;5.84;74.11
48862;BME280;34681;49.188;-0.374;2023-02-13T03:22:53;103136.00;;;6.30;71.96
48862;BME280;34681;49.188;-0.374;2023-02-13T03:26:04;103124.56;;;6.20;71.98
48862;BME280;34681;49.188;-0.374;2023-02-13T03:28:51;103131.16;;;6.36;70.74
48862;BME280;34681;49.188;-0.374;2023-02-13T03:32:04;103138.50;;;6.34;70.97
48862;BME280;34681;49.188;-0.374;2023-02-13T03:34:36;103131.16;;;6.36;70.40
48862;BME280;34681;49.188;-0.374;2023-02-13T03:37:36;103132.81;;;6.40;70.23
48862;BME280;34681;49.188;-0.374;2023-02-13T03:40:41;103137.56;;;6.57;68.96
48862;BME280;34681;49.188;-0.374;2023-02-13T03:43:31;103124.59;;;6.42;69.99
48862;BME280;34681;49.188;-0.374;2023-02-13T03:45:59;103121.56;;;6.50;69.61
48862;BME280;34681;49.188;-0.374;2023-02-13T03:48:33;103114.22;;;6.52;68.62
48862;BME280;34681;49.188;-0.374;2023-02-13T03:51:23;103128.34;;;6.39;69.62
48862;BME280;34681;49.188;-0.374;2023-02-13T03:53:54;103116.88;;;6.31;69.89
48862;BME280;34681;49.188;-0.374;2023-02-13T03:56:21;103129.91;;;6.45;69.00
48862;BME280;34681;49.188;-0.374;2023-02-13T03:59:18;103122.53;;;6.48;68.48
48862;BME280;34681;49.188;-0.374;2023-02-13T04:01:53;103114.97;;;5.86;69.88
48862;BME280;34681;49.188;-0.374;2023-02-13T04:06:54;103128.81;;;5.80;70.69
48862;BME280;34681;49.188;-0.374;2023-02-13T04:09:24;103130.56;;;6.06;69.74
48862;BME280;34681;49.188;-0.374;2023-02-13T04:14:39;103133.94;;;5.64;70.77
48862;BME280;34681;49.188;-0.374;2023-02-13T04:17:18;103129.84;;;6.01;69.53
48862;BME280;34681;49.188;-0.374;2023-02-13T04:19:46;103130.44;;;6.09;68.93
48862;BME280;34681;49.188;-0.374;2023-02-13T04:22:11;103128.50;;;6.13;68.39
48862;BME280;34681;49.188;-0.374;2023-02-13T04:24:37;103128.72;;;6.07;68.79
48862;BME280;34681;49.188;-0.374;2023-02-13T04:27:02;103133.22;;;6.08;68.47
48862;BME280;34681;49.188;-0.374;2023-02-13T04:29:27;103124.34;;;6.03;69.04
48862;BME280;34681;49.188;-0.374;2023-02-13T04:31:53;103130.50;;;6.08;68.49
48862;BME280;34681;49.188;-0.374;2023-02-13T04:34:19;103129.47;;;6.10;68.48
48862;BME280;34681;49.188;-0.374;2023-02-13T04:36:44;103125.94;;;6.08;68.12
48862;BME280;34681;49.188;-0.374;2023-02-13T04:39:10;103121.31;;;6.10;68.35
48862;BME280;34681;49.188;-0.374;2023-02-13T04:41:35;103125.00;;;6.09;67.88
48862;BME280;34681;49.188;-0.374;2023-02-13T04:44:01;103120.56;;;6.07;68.01
48862;BME280;34681;49.188;-0.374;2023-02-13T04:46:26;103118.97;;;6.01;68.06
48862;BME280;34681;49.188;-0.374;2023-02-13T04:48:51;103120.63;;;6.05;67.95
48862;BME280;34681;49.188;-0.374;2023-02-13T04:51:17;103119.91;;;6.00;67.82
48862;BME280;34681;49.188;-0.374;2023-02-13T04:53:42;103116.25;;;6.01;67.66
48862;BME280;34681;49.188;-0.374;2023-02-13T04:56:08;103132.50;;;6.03;67.61
48862;BME280;34681;49.188;-0.374;2023-02-13T04:58:33;103128.97;;;6.01;67.42
48862;BME280;34681;49.188;-0.374;2023-02-13T05:00:58;103135.47;;;5.97;67.57
48862;BME280;34681;49.188;-0.374;2023-02-13T05:03:24;103133.66;;;5.96;67.33
48862;BME280;34681;49.188;-0.374;2023-02-13T05:05:49;103134.59;;;5.96;67.32
48862;BME280;34681;49.188;-0.374;2023-02-13T05:08:14;103129.25;;;5.93;67.23
48862;BME280;34681;49.188;-0.374;2023-02-13T05:10:40;103131.03;;;5.94;67.17
48862;BME280;34681;49.188;-0.374;2023-02-13T05:13:05;103129.31;;;5.91;66.95
48862;BME280;34681;49.188;-0.374;2023-02-13T05:15:31;103123.19;;;5.85;67.38
48862;BME280;34681;49.188;-0.374;2023-02-13T05:17:56;103137.50;;;5.90;66.97
48862;BME280;34681;49.188;-0.374;2023-02-13T05:20:22;103132.28;;;5.84;67.12
48862;BME280;34681;49.188;-0.374;2023-02-13T05:22:49;103131.75;;;5.74;67.58
48862;BME280;34681;49.188;-0.374;2023-02-13T05:25:35;103135.19;;;5.79;67.17
48862;BME280;34681;49.188;-0.374;2023-02-13T05:28:01;103138.00;;;5.76;67.24
48862;BME280;34681;49.188;-0.374;2023-02-13T05:30:27;103130.75;;;5.77;67.00
48862;BME280;34681;49.188;-0.374;2023-02-13T05:32:52;103130.69;;;5.78;66.85
48862;BME280;34681;49.188;-0.374;2023-02-13T05:35:20;103131.63;;;5.77;66.86
48862;BME280;34681;49.188;-0.374;2023-02-13T05:37:45;103136.13;;;5.78;66.53
48862;BME280;34681;49.188;-0.374;2023-02-13T05:40:11;103130.09;;;5.70;67.11
48862;BME280;34681;49.188;-0.374;2023-02-13T05:42:38;103136.31;;;5.74;66.68
48862;BME280;34681;49.188;-0.374;2023-02-13T05:45:04;103128.25;;;5.71;66.80
48862;BME280;34681;49.188;-0.374;2023-02-13T05:47:30;103137.59;;;5.63;66.71
48862;BME280;34681;49.188;-0.374;2023-02-13T05:49:55;103141.41;;;5.58;67.38
48862;BME280;34681;49.188;-0.374;2023-02-13T05:52:20;103137.28;;;5.48;67.58
48862;BME280;34681;49.188;-0.374;2023-02-13T05:54:47;103127.84;;;5.58;67.33
48862;BME280;34681;49.188;-0.374;2023-02-13T05:57:13;103137.41;;;5.68;66.62
48862;BME280;34681;49.188;-0.374;2023-02-13T05:59:38;103135.50;;;5.47;67.41
48862;BME280;34681;49.188;-0.374;2023-02-13T06:02:03;103129.47;;;5.39;67.57
48862;BME280;34681;49.188;-0.374;2023-02-13T06:04:29;103133.84;;;5.43;67.19
48862;BME280;34681;49.188;-0.374;2023-02-13T06:06:54;103134.91;;;5.39;66.92
48862;BME280;34681;49.188;-0.374;2023-02-13T06:09:19;103129.03;;;4.99;67.57
48862;BME280;34681;49.188;-0.374;2023-02-13T06:11:45;103132.53;;;5.03;68.22
48862;BME280;34681;49.188;-0.374;2023-02-13T06:14:11;103142.16;;;5.12;68.54
48862;BME280;34681;49.188;-0.374;2023-02-13T06:16:38;103133.94;;;5.40;67.81
48862;BME280;34681;49.188;-0.374;2023-02-13T06:19:03;103138.97;;;5.25;68.24
48862;BME280;34681;49.188;-0.374;2023-02-13T06:21:28;103139.22;;;4.93;69.39
48862;BME280;34681;49.188;-0.374;2023-02-13T06:23:54;103138.84;;;5.03;69.21
48862;BME280;34681;49.188;-0.374;2023-02-13T06:26:19;103144.44;;;4.99;69.32
48862;BME280;34681;49.188;-0.374;2023-02-13T06:28:44;103144.84;;;5.13;69.09
48862;BME280;34681;49.188;-0.374;2023-02-13T06:31:10;103144.25;;;5.30;68.99
48862;BME280;34681;49.188;-0.374;2023-02-13T06:33:35;103142.75;;;5.21;69.19
48862;BME280;34681;49.188;-0.374;2023-02-13T06:36:00;103146.25;;;4.98;69.24
48862;BME280;34681;49.188;-0.374;2023-02-13T06:38:26;103148.53;;;4.58;70.48
48862;BME280;34681;49.188;-0.374;2023-02-13T06:40:51;103146.09;;;4.20;72.08
48862;BME280;34681;49.188;-0.374;2023-02-13T06:43:17;103139.97;;;3.84;72.92
48862;BME280;34681;49.188;-0.374;2023-02-13T06:45:43;103133.50;;;3.59;74.24
48862;BME280;34681;49.188;-0.374;2023-02-13T06:48:11;103135.66;;;3.46;74.71
48862;BME280;34681;49.188;-0.374;2023-02-13T06:50:36;103141.06;;;3.46;75.30
48862;BME280;34681;49.188;-0.374;2023-02-13T06:53:02;103132.72;;;3.21;75.78
48862;BME280;34681;49.188;-0.374;2023-02-13T06:55:27;103136.53;;;3.14;76.82
48862;BME280;34681;49.188;-0.374;2023-02-13T06:57:52;103136.75;;;3.06;76.80
48862;BME280;34681;49.188;-0.374;2023-02-13T07:00:18;103140.81;;;3.86;75.45
48862;BME280;34681;49.188;-0.374;2023-02-13T07:02:45;103141.78;;;3.84;74.16
48862;BME280;34681;49.188;-0.374;2023-02-13T07:05:11;103147.03;;;3.90;74.69
48862;BME280;34681;49.188;-0.374;2023-02-13T07:07:39;103143.59;;;3.52;74.91
48862;BME280;34681;49.188;-0.374;2023-02-13T07:10:07;103149.16;;;3.79;75.10
48862;BME280;34681;49.188;-0.374;2023-02-13T07:12:34;103144.63;;;3.48;75.35
48862;BME280;34681;49.188;-0.374;2023-02-13T07:15:01;103147.91;;;3.27;76.50
48862;BME280;34681;49.188;-0.374;2023-02-13T07:17:26;103150.31;;;3.70;75.64
48862;BME280;34681;49.188;-0.374;2023-02-13T07:19:52;103155.63;;;4.04;74.73
48862;BME280;34681;49.188;-0.374;2023-02-13T07:22:17;103148.00;;;4.17;74.43
48862;BME280;34681;49.188;-0.374;2023-02-13T07:24:43;103158.28;;;4.63;73.09
48862;BME280;34681;49.188;-0.374;2023-02-13T07:27:08;103157.06;;;5.00;71.19
48862;BME280;34681;49.188;-0.374;2023-02-13T07:29:33;103157.16;;;5.23;69.70
48862;BME280;34681;49.188;-0.374;2023-02-13T07:31:59;103163.56;;;5.21;69.84
48862;BME280;34681;49.188;-0.374;2023-02-13T07:34:24;103169.66;;;5.27;69.93
48862;BME280;34681;49.188;-0.374;2023-02-13T07:36:50;103168.56;;;5.33;69.97
48862;BME280;34681;49.188;-0.374;2023-02-13T07:39:15;103165.19;;;5.51;68.91
48862;BME280;34681;49.188;-0.374;2023-02-13T07:41:40;103170.19;;;5.63;68.44
48862;BME280;34681;49.188;-0.374;2023-02-13T07:44:06;103162.06;;;5.62;69.00
48862;BME280;34681;49.188;-0.374;2023-02-13T07:46:31;103163.28;;;5.78;68.44
48862;BME280;34681;49.188;-0.374;2023-02-13T07:48:57;103158.81;;;5.77;69.11
48862;BME280;34681;49.188;-0.374;2023-02-13T07:51:22;103166.34;;;5.94;68.37
48862;BME280;34681;49.188;-0.374;2023-02-13T07:53:51;103171.44;;;6.03;67.85
48862;BME280;34681;49.188;-0.374;2023-02-13T07:56:17;103171.16;;;6.11;67.48
48862;BME280;34681;49.188;-0.374;2023-02-13T07:58:42;103175.69;;;6.10;68.17
48862;BME280;34681;49.188;-0.374;2023-02-13T08:01:10;103181.66;;;6.20;67.53
48862;BME280;34681;49.188;-0.374;2023-02-13T08:03:36;103173.28;;;6.26;67.40
48862;BME280;34681;49.188;-0.374;2023-02-13T08:06:02;103177.06;;;6.22;66.83
48862;BME280;34681;49.188;-0.374;2023-02-13T08:08:28;103174.59;;;6.16;67.33
48862;BME280;34681;49.188;-0.374;2023-02-13T08:10:54;103177.66;;;6.30;66.91
48862;BME280;34681;49.188;-0.374;2023-02-13T08:13:38;103183.13;;;6.29;67.21
48862;BME280;34681;49.188;-0.374;2023-02-13T08:16:04;103184.56;;;6.39;67.05
48862;BME280;34681;49.188;-0.374;2023-02-13T08:18:30;103181.59;;;6.45;66.45
48862;BME280;34681;49.188;-0.374;2023-02-13T08:20:55;103180.16;;;6.58;65.56
48862;BME280;34681;49.188;-0.374;2023-02-13T08:23:20;103179.41;;;6.55;65.51
48862;BME280;34681;49.188;-0.374;2023-02-13T08:25:46;103177.66;;;6.52;65.77
48862;BME280;34681;49.188;-0.374;2023-02-13T08:28:13;103173.41;;;6.45;65.86
48862;BME280;34681;49.188;-0.374;2023-02-13T08:30:39;103171.06;;;6.36;66.40
48862;BME280;34681;49.188;-0.374;2023-02-13T08:33:04;103171.19;;;6.33;66.45
48862;BME280;34681;49.188;-0.374;2023-02-13T08:35:30;103173.41;;;6.45;65.40
48862;BME280;34681;49.188;-0.374;2023-02-13T08:37:56;103166.94;;;6.49;65.43
48862;BME280;34681;49.188;-0.374;2023-02-13T08:40:22;103170.38;;;6.54;65.86
48862;BME280;34681;49.188;-0.374;2023-02-13T08:42:47;103174.84;;;6.55;65.72
48862;BME280;34681;49.188;-0.374;2023-02-13T08:45:13;103171.28;;;6.53;65.96
48862;BME280;34681;49.188;-0.374;2023-02-13T08:47:38;103162.94;;;6.58;66.05
48862;BME280;34681;49.188;-0.374;2023-02-13T08:50:05;103175.03;;;6.72;66.30
48862;BME280;34681;49.188;-0.374;2023-02-13T08:52:30;103173.25;;;6.93;66.34
48862;BME280;34681;49.188;-0.374;2023-02-13T08:54:56;103163.81;;;7.02;66.15
48862;BME280;34681;49.188;-0.374;2023-02-13T08:57:21;103179.72;;;7.33;65.22
48862;BME280;34681;49.188;-0.374;2023-02-13T08:59:47;103179.47;;;7.39;64.91
48862;BME280;34681;49.188;-0.374;2023-02-13T09:02:12;103169.72;;;7.33;65.30
48862;BME280;34681;49.188;-0.374;2023-02-13T09:04:39;103173.75;;;7.45;65.15
48862;BME280;34681;49.188;-0.374;2023-02-13T09:07:04;103178.31;;;7.45;64.92
48862;BME280;34681;49.188;-0.374;2023-02-13T09:09:30;103183.25;;;7.35;65.07
48862;BME280;34681;49.188;-0.374;2023-02-13T09:11:55;103175.38;;;7.29;65.17
48862;BME280;34681;49.188;-0.374;2023-02-13T09:14:23;103178.91;;;7.31;64.92
48862;BME280;34681;49.188;-0.374;2023-02-13T09:16:48;103176.25;;;7.29;65.31
48862;BME280;34681;49.188;-0.374;2023-02-13T09:19:13;103177.88;;;7.33;64.77
48862;BME280;34681;49.188;-0.374;2023-02-13T09:21:39;103169.16;;;7.25;65.30
48862;BME280;34681;49.188;-0.374;2023-02-13T09:24:08;103167.75;;;7.37;65.37
48862;BME280;34681;49.188;-0.374;2023-02-13T09:26:34;103162.19;;;6.98;65.39
48862;BME280;34681;49.188;-0.374;2023-02-13T09:28:59;103168.00;;;6.67;65.92
48862;BME280;34681;49.188;-0.374;2023-02-13T09:31:25;103158.50;;;6.77;66.36
48862;BME280;34681;49.188;-0.374;2023-02-13T09:33:50;103160.91;;;7.07;66.71
48862;BME280;34681;49.188;-0.374;2023-02-13T09:36:19;103166.31;;;7.28;66.00
48862;BME280;34681;49.188;-0.374;2023-02-13T09:38:46;103161.06;;;7.65;65.20
48862;BME280;34681;49.188;-0.374;2023-02-13T09:41:18;103165.59;;;7.84;65.25
48862;BME280;34681;49.188;-0.374;2023-02-13T09:43:48;103158.53;;;7.80;65.35
48862;BME280;34681;49.188;-0.374;2023-02-13T09:46:20;103165.66;;;7.83;65.64
48862;BME280;34681;49.188;-0.374;2023-02-13T09:48:49;103167.09;;;7.92;65.53
48862;BME280;34681;49.188;-0.374;2023-02-13T09:51:18;103162.84;;;8.24;64.97
48862;BME280;34681;49.188;-0.374;2023-02-13T09:54:05;103165.75;;;8.21;65.16
48862;BME280;34681;49.188;-0.374;2023-02-13T09:59:15;103168.50;;;8.39;64.86
48862;BME280;34681;49.188;-0.374;2023-02-13T10:01:46;103179.34;;;8.41;65.10
48862;BME280;34681;49.188;-0.374;2023-02-13T10:04:24;103170.25;;;8.40;65.20
48862;BME280;34681;49.188;-0.374;2023-02-13T10:15:07;103175.03;;;8.35;66.09
48862;BME280;34681;49.188;-0.374;2023-02-13T10:17:41;103181.41;;;8.36;66.30
48862;BME280;34681;49.188;-0.374;2023-02-13T10:20:32;103186.56;;;8.42;66.15
48862;BME280;34681;49.188;-0.374;2023-02-13T10:25:46;103176.28;;;8.28;66.48
48862;BME280;34681;49.188;-0.374;2023-02-13T10:28:25;103182.47;;;8.32;67.03
48862;BME280;34681;49.188;-0.374;2023-02-13T10:30:55;103180.94;;;7.87;67.65
48862;BME280;34681;49.188;-0.374;2023-02-13T10:33:25;103183.38;;;7.93;68.42
48862;BME280;34681;49.188;-0.374;2023-02-13T10:36:00;103172.44;;;8.32;67.67
48862;BME280;34681;49.188;-0.374;2023-02-13T10:38:29;103176.22;;;8.67;66.61
48862;BME280;34681;49.188;-0.374;2023-02-13T10:46:21;103179.31;;;8.22;68.29
48862;BME280;34681;49.188;-0.374;2023-02-13T10:49:11;103176.97;;;7.94;69.18
48862;BME280;34681;49.188;-0.374;2023-02-13T10:51:48;103167.38;;;7.85;70.53
48862;BME280;34681;49.188;-0.374;2023-02-13T10:54:49;103171.59;;;7.93;70.20
48862;BME280;34681;49.188;-0.374;2023-02-13T11:02:47;103168.50;;;8.00;71.48
48862;BME280;34681;49.188;-0.374;2023-02-13T11:05:16;103161.41;;;8.35;71.28
48862;BME280;34681;49.188;-0.374;2023-02-13T11:07:44;103163.09;;;8.57;70.71
48862;BME280;34681;49.188;-0.374;2023-02-13T11:10:20;103164.50;;;8.28;71.53
48862;BME280;34681;49.188;-0.374;2023-02-13T11:12:46;103155.47;;;8.07;72.96
48862;BME280;34681;49.188;-0.374;2023-02-13T11:15:29;103165.16;;;8.52;71.42
48862;BME280;34681;49.188;-0.374;2023-02-13T11:18:09;103161.53;;;8.32;72.39
48862;BME280;34681;49.188;-0.374;2023-02-13T11:20:39;103152.84;;;8.43;72.54
48862;BME280;34681;49.188;-0.374;2023-02-13T11:26:06;103153.56;;;9.01;71.32
48862;BME280;34681;49.188;-0.374;2023-02-13T11:28:37;103153.97;;;8.94;71.68
48862;BME280;34681;49.188;-0.374;2023-02-13T11:33:35;103146.78;;;9.10;71.60
48862;BME280;34681;49.188;-0.374;2023-02-13T11:36:21;103140.25;;;9.47;70.72
48862;BME280;34681;49.188;-0.374;2023-02-13T11:39:06;103137.25;;;9.35;70.97
48862;BME280;34681;49.188;-0.374;2023-02-13T11:41:43;103134.88;;;9.46;70.51
48862;BME280;34681;49.188;-0.374;2023-02-13T11:44:25;103133.31;;;9.57;70.74
48862;BME280;34681;49.188;-0.374;2023-02-13T11:46:53;103136.31;;;9.53;70.71
48862;BME280;34681;49.188;-0.374;2023-02-13T11:49:25;103125.44;;;9.69;70.46
48862;BME280;34681;49.188;-0.374;2023-02-13T11:51:53;103116.13;;;9.89;69.94
48862;BME280;34681;49.188;-0.374;2023-02-13T11:56:56;103120.91;;;10.01;69.56
48862;BME280;34681;49.188;-0.374;2023-02-13T11:59:23;103118.19;;;10.17;69.30
48862;BME280;34681;49.188;-0.374;2023-02-13T12:07:41;103106.09;;;10.05;70.20
48862;BME280;34681;49.188;-0.374;2023-02-13T12:10:21;103110.81;;;10.19;69.82
48862;BME280;34681;49.188;-0.374;2023-02-13T12:13:17;103109.03;;;10.02;69.90
48862;BME280;34681;49.188;-0.374;2023-02-13T12:15:46;103098.22;;;9.99;70.22
48862;BME280;34681;49.188;-0.374;2023-02-13T12:18:28;103102.75;;;10.16;69.69
48862;BME280;34681;49.188;-0.374;2023-02-13T12:24:20;103094.94;;;10.25;68.42
48862;BME280;34681;49.188;-0.374;2023-02-13T12:26:56;103088.03;;;10.02;69.21
48862;BME280;34681;49.188;-0.374;2023-02-13T12:29:43;103086.38;;;10.31;68.48
48862;BME280;34681;49.188;-0.374;2023-02-13T12:32:19;103090.09;;;10.46;68.13
48862;BME280;34681;49.188;-0.374;2023-02-13T12:35:03;103092.81;;;10.46;68.28
48862;BME280;34681;49.188;-0.374;2023-02-13T12:43:09;103076.75;;;10.56;67.13
48862;BME280;34681;49.188;-0.374;2023-02-13T12:45:40;103072.94;;;10.58;67.34
48862;BME280;34681;49.188;-0.374;2023-02-13T12:57:12;103062.41;;;10.66;66.75
48862;BME280;34681;49.188;-0.374;2023-02-13T13:02:50;103064.03;;;11.01;65.82
48862;BME280;34681;49.188;-0.374;2023-02-13T13:10:57;103056.94;;;10.96;64.96
48862;BME280;34681;49.188;-0.374;2023-02-13T13:16:29;103056.69;;;11.01;65.29
48862;BME280;34681;49.188;-0.374;2023-02-13T13:19:09;103049.50;;;10.98;65.32
48862;BME280;34681;49.188;-0.374;2023-02-13T13:24:27;103042.16;;;11.58;63.96
48862;BME280;34681;49.188;-0.374;2023-02-13T13:26:57;103039.63;;;11.54;64.05
48862;BME280;34681;49.188;-0.374;2023-02-13T13:29:31;103036.66;;;11.58;64.68
48862;BME280;34681;49.188;-0.374;2023-02-13T13:32:05;103034.25;;;11.53;63.95
48862;BME280;34681;49.188;-0.374;2023-02-13T13:34:33;103029.25;;;11.45;64.46
48862;BME280;34681;49.188;-0.374;2023-02-13T13:37:04;103029.84;;;11.50;64.37
48862;BME280;34681;49.188;-0.374;2023-02-13T13:39:56;103028.25;;;11.61;64.01
48862;BME280;34681;49.188;-0.374;2023-02-13T13:42:40;103026.50;;;11.60;63.37
48862;BME280;34681;49.188;-0.374;2023-02-13T13:50:39;103017.97;;;11.64;62.99
48862;BME280;34681;49.188;-0.374;2023-02-13T13:58:21;103009.25;;;11.72;63.06
48862;BME280;34681;49.188;-0.374;2023-02-13T14:03:57;103022.28;;;11.82;62.28
48862;BME280;34681;49.188;-0.374;2023-02-13T14:06:27;103018.06;;;11.77;62.09
48862;BME280;34681;49.188;-0.374;2023-02-13T14:09:40;103006.50;;;11.72;62.36
48862;BME280;34681;49.188;-0.374;2023-02-13T14:14:53;103001.16;;;11.85;62.43
48862;BME280;34681;49.188;-0.374;2023-02-13T14:33:54;102993.16;;;12.35;60.78
48862;BME280;34681;49.188;-0.374;2023-02-13T14:36:22;102988.56;;;12.36;60.48
48862;BME280;34681;49.188;-0.374;2023-02-13T14:38:55;102989.38;;;12.24;60.70
48862;BME280;34681;49.188;-0.374;2023-02-13T14:41:44;102988.41;;;12.25;61.12
48862;BME280;34681;49.188;-0.374;2023-02-13T14:44:48;102993.69;;;12.28;60.78
48862;BME280;34681;49.188;-0.374;2023-02-13T14:47:31;102986.53;;;12.25;60.58
48862;BME280;34681;49.188;-0.374;2023-02-13T14:50:01;102982.53;;;12.44;60.04
48862;BME280;34681;49.188;-0.374;2023-02-13T14:52:37;102980.84;;;12.41;59.92
48862;BME280;34681;49.188;-0.374;2023-02-13T14:55:15;102976.06;;;12.45;60.01
48862;BME280;34681;49.188;-0.374;2023-02-13T14:57:44;102981.22;;;12.49;60.25
48862;BME280;34681;49.188;-0.374;2023-02-13T15:03:02;102978.81;;;12.45;59.32
48862;BME280;34681;49.188;-0.374;2023-02-13T15:05:32;102980.69;;;12.44;59.46
48862;BME280;34681;49.188;-0.374;2023-02-13T15:08:25;102976.34;;;12.67;59.11
48862;BME280;34681;49.188;-0.374;2023-02-13T15:10:54;102974.78;;;12.50;59.38
48862;BME280;34681;49.188;-0.374;2023-02-13T15:13:53;102972.91;;;12.63;59.24
48862;BME280;34681;49.188;-0.374;2023-02-13T15:16:13;102972.38;;;12.58;59.42
48862;BME280;34681;49.188;-0.374;2023-02-13T15:18:46;102975.19;;;12.57;59.75
48862;BME280;34681;49.188;-0.374;2023-02-13T15:21:15;102974.66;;;12.64;59.31
48862;BME280;34681;49.188;-0.374;2023-02-13T15:23:41;102972.28;;;12.73;59.35
48862;BME280;34681;49.188;-0.374;2023-02-13T15:26:07;102972.50;;;12.70;59.22
48862;BME280;34681;49.188;-0.374;2023-02-13T15:28:34;102976.00;;;12.59;59.48
48862;BME280;34681;49.188;-0.374;2023-02-13T15:31:03;102978.06;;;12.55;59.45